Hlavní strana
METAR-TAF:

METAR-TAF

Letiště :

Savannah/Hilton Head International Airport

Savannah, Georgie, Spojené státy americké

zeměpisná šířka: 32-07-08N, zeměpisná délka: 081-12-08W, výška: 15 m

Aktuální stav počasí

Zpráva byla vytvořena před 13 minutami, v 10:53 UTC
Západoseverozápadní vítr 3 kt
Teplota 21°C
Vlhkost vzduchu 94%
Tlak 1022 hPa
Viditelnost: 16.1 km
Jasno
Přízemní mlha

METAR: KSAV 241053Z 29003KT 10SM MIFG CLR 21/20 A3018 RMK AO2 SLP218 T02060200

Čas: 07:06 (11:06 UTC)

Předpověď počasí

Zpráva byla vytvořena před 5 hodinami a 31 minutami, v 05:35 UTC
Předpověď platná od 24 v 06 UTC do 25 v 06 UTC
vítr z různých směrů 3 kt
Viditelnost: 10 km
Jasno
Od 24 v 2200 UTC
Jižní vítr 5 kt
Viditelnost: 10 km
Jasno

TAF: KSAV 240535Z 2406/2506 VRB03KT P6SM SKC FM242200 18005KT P6SM SKC

Stav a předpovědi počasí z více než 4 000 letišť (zprávy METAR a TAF).

Červené a žluté tečky na mapě představují dostupné meteorologické stanice.

Když kurzor umístíte na tečku, zobrazí se název stanice.

Pak kliknutím zobrazíte stav a předpověď počasí.

Chcete-li změnit mapu, kliknutím na zelené tlačítko se znaménkem +mapu přiblížíte, kliknutím na zelené tlačítko se znaménkem – mapu oddálíte a kliknutím na zelené šipky přejdete na sousední mapy.


METAR-TAF: